Liuliu - Monthly weather history

Lat: -6.63 | Lon: 156.45 | Forecast for altitude: 60m | Map
Liuliu: Warning for hazardous weather conditions

Severe weather conditions expected: Saturday, April 28, 2018

Liuliu, The weather in the past

Weather station: HONIARA/HENDERSON at 502.6km of Liuliu
Station location: Lat -9.417 Lon 160.050 Altitude 9m
Date Daily minimum temperature Daily maximum temperature Maximum steady wind Maximum wind gust Total daily precipitation Snow depth Pressure Icon Description
4/1/2018 23°C 31°C 11 Km/h N/A 0mm N/A 1008.0mb Rain
4/2/2018 23°C 32°C 15 Km/h N/A 0.5mm N/A 1008.3mb Thunderstorm
Rain
4/3/2018 23°C 28°C 8 Km/h N/A 20mm N/A 1009.2mb Rain
4/4/2018 24°C 32°C 11 Km/h N/A 10.9mm N/A 1007.5mb weather events not reported
4/5/2018 24°C 31°C N/A N/A 0.5mm N/A 1008.1mb weather events not reported
4/6/2018 24°C 32°C 29 Km/h N/A 0mm N/A 1009.5mb Thunderstorm
Rain
4/7/2018 24°C 29°C 15 Km/h N/A 29.9mm N/A 1010.5mb Rain
4/8/2018 23°C 32°C 15 Km/h N/A 0.5mm N/A 1010.5mb Thunderstorm
Rain
4/9/2018 23°C 31°C 11 Km/h N/A 1mm N/A 1009.2mb Rain
4/10/2018 24°C 32°C 28 Km/h N/A 0mm N/A 1009.0mb Thunderstorm
4/11/2018 24°C 30°C 13 Km/h N/A 0mm N/A 1009.1mb weather events not reported
4/12/2018 23°C 32°C 26 Km/h N/A 0mm N/A 1009.7mb weather events not reported
4/13/2018 24°C 33°C N/A N/A 0mm N/A 1009.4mb Thunderstorm
Rain
4/14/2018 23°C 27°C 11 Km/h N/A 11.9mm N/A 1009.2mb Rain
4/15/2018 23°C 31°C 22 Km/h N/A 7.8mm N/A 1008.9mb Rain
4/16/2018 23°C 32°C 22 Km/h N/A 5mm N/A 1009.3mb weather events not reported
4/17/2018 23°C 33°C 26 Km/h N/A 0mm N/A 1008.0mb weather events not reported
4/18/2018 23°C 33°C 24 Km/h N/A 0mm N/A 1007.3mb weather events not reported
4/19/2018 22°C 31°C 24 Km/h N/A 37mm N/A 1007.9mb Thunderstorm
Rain
4/20/2018 22°C 30°C N/A N/A 6mm N/A 1007.2mb Rain
4/21/2018 23°C 32°C 15 Km/h N/A 0.7mm N/A 1007.6mb weather events not reported
4/22/2018 23°C 32°C 26 Km/h N/A 0mm N/A 1007.0mb weather events not reported
4/23/2018 23°C 32°C 22 Km/h N/A 1mm N/A 1007.6mb Rain
4/24/2018 23°C 32°C 22 Km/h N/A 38.6mm N/A 1008.6mb Rain
4/25/2018 23°C 32°C 9 Km/h N/A 0mm N/A 1008.9mb weather events not reported
Live Satellite Image
Weather maps

Local Time: Liuliu, Solomon Islands

27 Apr 2018 | 17:31